Time;durP1;ratioP1;P1;durP2;ratioP2;P2;SDS_P1;SDS_P2;PMS_P1;PMS_P2;Temp;Humidity;BMP_temperature;BMP_pressure;BME280_temperature;BME280_humidity;BME280_pressure;Samples;Min_cycle;Max_cycle;Signal;HPM_P1;HPM_P2
2023/04/26 00:00:00;;;;;;;146.05;121.63;;;;;;;;;;4994901;28;20687;-48
2023/04/26 00:02:26;;;;;;;149.27;120.43;;;;;;;;;;4994854;28;20200;-48
2023/04/26 00:04:57;;;;;;;143.32;118.45;;;;;;;;;;4994571;28;20177;-48
2023/04/26 00:07:23;;;;;;;142.55;117.60;;;;;;;;;;4993766;28;20212;-48
2023/04/26 00:09:50;;;;;;;130.25;108.80;;;;;;;;;;4994018;28;20181;-48
2023/04/26 00:12:16;;;;;;;135.80;112.22;;;;;;;;;;4994919;28;20272;-48
2023/04/26 00:14:41;;;;;;;137.82;112.93;;;;;;;;;;4994848;28;20256;-48
2023/04/26 00:17:07;;;;;;;129.27;108.00;;;;;;;;;;4993744;28;20195;-48
2023/04/26 00:19:33;;;;;;;123.70;105.60;;;;;;;;;;4976794;28;20185;-48
2023/04/26 00:21:59;;;;;;;123.20;102.03;;;;;;;;;;4994606;28;20236;-48
2023/04/26 00:24:25;;;;;;;120.68;100.75;;;;;;;;;;4990932;28;20189;-48
2023/04/26 00:26:55;;;;;;;121.75;99.68;;;;;;;;;;4993520;28;20189;-48
2023/04/26 00:29:21;;;;;;;119.82;96.03;;;;;;;;;;4994291;28;20196;-48
2023/04/26 00:31:47;;;;;;;115.68;95.00;;;;;;;;;;4994773;28;20195;-48
2023/04/26 00:34:13;;;;;;;111.45;90.50;;;;;;;;;;4994291;28;20189;-48
2023/04/26 00:36:39;;;;;;;112.05;92.47;;;;;;;;;;4993618;28;20455;-48
2023/04/26 00:39:05;;;;;;;115.50;93.70;;;;;;;;;;4993306;28;20217;-48
2023/04/26 00:41:31;;;;;;;103.43;86.70;;;;;;;;;;4994393;28;20564;-48
2023/04/26 00:43:57;;;;;;;103.82;85.22;;;;;;;;;;4993599;28;20204;-48
2023/04/26 00:46:23;;;;;;;103.22;84.70;;;;;;;;;;4994484;28;20196;-48
2023/04/26 00:48:49;;;;;;;94.85;80.72;;;;;;;;;;4993324;28;20267;-48
2023/04/26 00:51:15;;;;;;;97.47;82.22;;;;;;;;;;4994401;28;20501;-48
2023/04/26 00:53:41;;;;;;;99.88;81.47;;;;;;;;;;4994132;28;20193;-48
2023/04/26 00:56:08;;;;;;;92.97;76.47;;;;;;;;;;4994016;28;20231;-48
2023/04/26 00:58:34;;;;;;;94.78;77.30;;;;;;;;;;4995852;28;20190;-48
2023/04/26 01:01:01;;;;;;;91.57;76.10;;;;;;;;;;4997646;28;20480;-48
2023/04/26 01:03:27;;;;;;;90.32;75.70;;;;;;;;;;4997757;28;20200;-48
2023/04/26 01:05:53;;;;;;;88.13;73.47;;;;;;;;;;4997851;28;20181;-48
2023/04/26 01:08:20;;;;;;;88.95;73.63;;;;;;;;;;4996586;28;20189;-48
2023/04/26 01:10:46;;;;;;;82.35;68.53;;;;;;;;;;4997558;28;20220;-48
2023/04/26 01:13:13;;;;;;;82.03;68.93;;;;;;;;;;4997884;28;20213;-48
2023/04/26 01:15:42;;;;;;;79.97;66.80;;;;;;;;;;4997703;28;20189;-48
2023/04/26 01:18:08;;;;;;;85.45;68.55;;;;;;;;;;4996301;28;20189;-48
2023/04/26 01:20:34;;;;;;;81.15;65.40;;;;;;;;;;4997176;28;20584;-48
2023/04/26 01:23:00;;;;;;;79.57;62.72;;;;;;;;;;4996899;28;20483;-48
2023/04/26 01:25:26;;;;;;;77.68;65.85;;;;;;;;;;4997852;28;20181;-48
2023/04/26 01:27:52;;;;;;;76.03;62.50;;;;;;;;;;4996803;28;20308;-48
2023/04/26 01:30:18;;;;;;;73.18;61.95;;;;;;;;;;4997811;28;20261;-48
2023/04/26 01:32:44;;;;;;;72.88;58.63;;;;;;;;;;4997045;28;20268;-48
2023/04/26 01:35:10;;;;;;;68.90;57.20;;;;;;;;;;4993651;28;20200;-48
2023/04/26 01:37:36;;;;;;;70.18;56.65;;;;;;;;;;4995690;28;20509;-48
2023/04/26 01:40:05;;;;;;;66.90;56.40;;;;;;;;;;4996714;28;20213;-48
2023/04/26 01:42:32;;;;;;;67.78;57.55;;;;;;;;;;4997472;28;20284;-48
2023/04/26 01:44:57;;;;;;;63.13;53.85;;;;;;;;;;4997249;28;20177;-48
2023/04/26 01:47:25;;;;;;;63.67;52.83;;;;;;;;;;4996400;28;20189;-48
2023/04/26 01:49:51;;;;;;;68.97;55.85;;;;;;;;;;4997023;28;20216;-48
2023/04/26 01:52:17;;;;;;;66.07;55.05;;;;;;;;;;4996406;28;20221;-48
2023/04/26 01:54:43;;;;;;;63.80;52.72;;;;;;;;;;4996962;28;20208;-48
2023/04/26 01:57:09;;;;;;;59.33;49.80;;;;;;;;;;4997775;28;20200;-48
2023/04/26 01:59:35;;;;;;;61.38;49.97;;;;;;;;;;4996045;28;20585;-48
2023/04/26 02:02:01;;;;;;;56.97;49.05;;;;;;;;;;4996847;28;20181;-48
2023/04/26 02:04:27;;;;;;;59.20;49.60;;;;;;;;;;4996521;28;20510;-48
2023/04/26 02:06:53;;;;;;;58.83;49.85;;;;;;;;;;4996450;28;20177;-48
2023/04/26 02:09:19;;;;;;;58.45;47.30;;;;;;;;;;4994900;28;20235;-48
2023/04/26 02:11:45;;;;;;;57.08;47.53;;;;;;;;;;4997075;28;20256;-48
2023/04/26 02:14:11;;;;;;;54.88;44.90;;;;;;;;;;4996277;28;20807;-48
2023/04/26 02:16:38;;;;;;;53.63;44.45;;;;;;;;;;4995924;28;20673;-48
2023/04/26 02:19:09;;;;;;;53.83;45.33;;;;;;;;;;4996317;28;20387;-48
2023/04/26 02:21:49;;;;;;;51.72;43.63;;;;;;;;;;4997031;28;20585;-48
2023/04/26 02:24:15;;;;;;;48.58;42.92;;;;;;;;;;4995756;28;20215;-48
2023/04/26 02:26:41;;;;;;;49.72;42.20;;;;;;;;;;4994974;28;20279;-48
2023/04/26 02:29:07;;;;;;;49.38;40.60;;;;;;;;;;4995700;28;20560;-48
2023/04/26 02:31:33;;;;;;;48.97;41.00;;;;;;;;;;4996396;28;20210;-48
2023/04/26 02:33:59;;;;;;;47.20;39.58;;;;;;;;;;4996169;28;20194;-48
2023/04/26 02:36:26;;;;;;;46.13;38.13;;;;;;;;;;4996099;28;20264;-48
2023/04/26 02:38:52;;;;;;;45.33;38.95;;;;;;;;;;4996228;28;20173;-48
2023/04/26 02:41:18;;;;;;;41.65;36.20;;;;;;;;;;4996077;28;20288;-48
2023/04/26 02:43:43;;;;;;;43.33;36.42;;;;;;;;;;4995513;28;20596;-48
2023/04/26 02:46:09;;;;;;;43.80;37.05;;;;;;;;;;4994373;28;20182;-48
2023/04/26 02:48:35;;;;;;;45.10;37.08;;;;;;;;;;4999278;28;20243;-48
2023/04/26 02:51:01;;;;;;;42.90;36.20;;;;;;;;;;4996164;28;20426;-48
2023/04/26 02:53:27;;;;;;;44.33;36.88;;;;;;;;;;4996250;28;20445;-47
2023/04/26 02:55:53;;;;;;;41.13;35.45;;;;;;;;;;4995903;28;20467;-47
2023/04/26 02:58:20;;;;;;;39.65;34.45;;;;;;;;;;4995459;28;20186;-47
2023/04/26 03:00:47;;;;;;;40.15;33.65;;;;;;;;;;4994872;28;20191;-47
2023/04/26 03:03:13;;;;;;;38.63;32.92;;;;;;;;;;4995220;28;20260;-47
2023/04/26 03:05:38;;;;;;;36.45;32.13;;;;;;;;;;4981650;28;20185;-47
2023/04/26 03:08:05;;;;;;;36.03;31.20;;;;;;;;;;4995117;28;20260;-47
2023/04/26 03:10:30;;;;;;;36.65;31.02;;;;;;;;;;4996246;28;20263;-47
2023/04/26 03:12:56;;;;;;;37.00;31.20;;;;;;;;;;4992949;28;20561;-48
2023/04/26 03:15:22;;;;;;;36.72;31.52;;;;;;;;;;4995157;28;20224;-48
2023/04/26 03:17:48;;;;;;;36.95;32.00;;;;;;;;;;4994324;28;20454;-48
2023/04/26 03:20:14;;;;;;;34.05;29.10;;;;;;;;;;4995869;28;20224;-48
2023/04/26 03:22:40;;;;;;;33.88;28.77;;;;;;;;;;4995388;28;20631;-48
2023/04/26 03:25:06;;;;;;;34.00;29.00;;;;;;;;;;4995705;28;20181;-48
2023/04/26 03:27:32;;;;;;;32.47;27.73;;;;;;;;;;4993388;28;20228;-48
2023/04/26 03:29:58;;;;;;;30.08;26.58;;;;;;;;;;4995731;28;20189;-48
2023/04/26 03:32:24;;;;;;;31.98;27.65;;;;;;;;;;4995415;28;20467;-48
2023/04/26 03:34:50;;;;;;;29.98;26.23;;;;;;;;;;4995099;28;20189;-48
2023/04/26 03:37:16;;;;;;;30.90;26.10;;;;;;;;;;4994820;28;20235;-48
2023/04/26 03:39:42;;;;;;;28.88;25.50;;;;;;;;;;4994897;28;20216;-48
2023/04/26 03:42:08;;;;;;;28.33;24.23;;;;;;;;;;4995196;28;20217;-48
2023/04/26 03:44:34;;;;;;;29.73;24.85;;;;;;;;;;4994618;28;20213;-48
2023/04/26 03:47:00;;;;;;;28.50;24.48;;;;;;;;;;4994860;28;20264;-48
2023/04/26 03:49:26;;;;;;;28.30;23.95;;;;;;;;;;4995016;28;20220;-48
2023/04/26 03:51:51;;;;;;;27.20;22.77;;;;;;;;;;4994321;28;20208;-48
2023/04/26 03:54:17;;;;;;;30.17;24.00;;;;;;;;;;4994279;28;20185;-48
2023/04/26 03:56:43;;;;;;;28.48;23.70;;;;;;;;;;4994714;28;20216;-47
2023/04/26 03:59:09;;;;;;;27.40;22.13;;;;;;;;;;4995159;28;20271;-47
2023/04/26 04:01:35;;;;;;;29.90;22.15;;;;;;;;;;4995297;28;20259;-47
2023/04/26 04:04:01;;;;;;;27.10;21.95;;;;;;;;;;4994918;28;20295;-47
2023/04/26 04:06:27;;;;;;;26.52;21.67;;;;;;;;;;4994339;28;20575;-47
2023/04/26 04:08:53;;;;;;;27.50;20.77;;;;;;;;;;4994093;28;20185;-47
2023/04/26 04:11:19;;;;;;;25.60;20.40;;;;;;;;;;4995131;28;20247;-47
2023/04/26 04:13:45;;;;;;;29.75;21.80;;;;;;;;;;4994249;28;20557;-47
2023/04/26 04:16:11;;;;;;;25.40;19.67;;;;;;;;;;4994877;28;20197;-47
2023/04/26 04:18:37;;;;;;;26.33;20.92;;;;;;;;;;4993904;28;20519;-48
2023/04/26 04:21:03;;;;;;;27.70;20.33;;;;;;;;;;4994541;28;20185;-48
2023/04/26 04:23:29;;;;;;;23.33;18.90;;;;;;;;;;4995123;28;20233;-48
2023/04/26 04:25:55;;;;;;;25.33;19.48;;;;;;;;;;4993962;28;20169;-48
2023/04/26 04:28:22;;;;;;;23.70;17.95;;;;;;;;;;4993223;28;20185;-48
2023/04/26 04:30:48;;;;;;;26.05;18.30;;;;;;;;;;4995141;28;20223;-48
2023/04/26 04:33:13;;;;;;;24.58;18.00;;;;;;;;;;4997303;28;20527;-48
2023/04/26 04:35:43;;;;;;;24.80;17.83;;;;;;;;;;4998256;28;20636;-48
2023/04/26 04:38:09;;;;;;;26.80;18.02;;;;;;;;;;4993991;28;20223;-48
2023/04/26 04:40:35;;;;;;;21.83;17.50;;;;;;;;;;4998706;28;20260;-48
2023/04/26 04:43:02;;;;;;;23.77;17.38;;;;;;;;;;4998154;28;20205;-48
2023/04/26 04:45:28;;;;;;;21.00;16.88;;;;;;;;;;4998485;28;20181;-48
2023/04/26 04:47:55;;;;;;;24.35;17.27;;;;;;;;;;4998183;28;20252;-48
2023/04/26 04:50:22;;;;;;;21.27;16.63;;;;;;;;;;4998450;28;20565;-47
2023/04/26 04:52:48;;;;;;;20.02;15.70;;;;;;;;;;4990802;28;20185;-47
2023/04/26 04:55:14;;;;;;;21.45;15.85;;;;;;;;;;4998252;28;20201;-48
2023/04/26 04:57:40;;;;;;;22.35;15.23;;;;;;;;;;4997817;28;20185;-47
2023/04/26 05:00:11;;;;;;;20.73;16.00;;;;;;;;;;4997699;28;20177;-48
2023/04/26 05:02:37;;;;;;;19.92;15.77;;;;;;;;;;4997889;28;20212;-47
2023/04/26 05:05:03;;;;;;;19.15;15.18;;;;;;;;;;4997785;28;20193;-48
2023/04/26 05:07:31;;;;;;;21.58;14.60;;;;;;;;;;4997702;28;20219;-48
2023/04/26 05:09:57;;;;;;;18.10;14.20;;;;;;;;;;4998193;28;20177;-48
2023/04/26 05:12:22;;;;;;;20.92;14.77;;;;;;;;;;4997567;28;20427;-48
2023/04/26 05:14:48;;;;;;;19.98;14.13;;;;;;;;;;4997267;28;20489;-48
2023/04/26 05:17:14;;;;;;;19.85;14.48;;;;;;;;;;4996802;28;20585;-48
2023/04/26 05:19:40;;;;;;;17.05;13.73;;;;;;;;;;4997768;28;20181;-48
2023/04/26 05:22:06;;;;;;;20.48;14.00;;;;;;;;;;4998307;28;20511;-48
2023/04/26 05:24:32;;;;;;;19.73;13.75;;;;;;;;;;4997366;28;20235;-48
2023/04/26 05:26:58;;;;;;;17.65;12.98;;;;;;;;;;4997435;28;20200;-48
2023/04/26 05:29:28;;;;;;;20.15;12.90;;;;;;;;;;4995967;28;20200;-48
2023/04/26 05:31:54;;;;;;;18.45;13.60;;;;;;;;;;4998311;28;20169;-48
2023/04/26 05:34:20;;;;;;;17.67;13.07;;;;;;;;;;4997456;28;20500;-48
2023/04/26 05:36:46;;;;;;;15.80;12.45;;;;;;;;;;4996956;28;20185;-48
2023/04/26 05:39:12;;;;;;;15.52;11.98;;;;;;;;;;4997339;28;20181;-48
2023/04/26 05:41:38;;;;;;;15.32;11.60;;;;;;;;;;4997100;28;20533;-48
2023/04/26 05:44:04;;;;;;;16.52;11.70;;;;;;;;;;4996209;28;20233;-48
2023/04/26 05:46:30;;;;;;;18.33;11.60;;;;;;;;;;4996746;28;20221;-48
2023/04/26 05:48:56;;;;;;;14.15;11.27;;;;;;;;;;4997281;28;20603;-48
2023/04/26 05:51:22;;;;;;;13.10;10.75;;;;;;;;;;4994215;28;20263;-47
2023/04/26 05:53:48;;;;;;;14.68;11.27;;;;;;;;;;4996714;28;20580;-48
2023/04/26 05:56:14;;;;;;;12.70;10.80;;;;;;;;;;4995568;28;20204;-48
2023/04/26 05:58:40;;;;;;;11.90;10.52;;;;;;;;;;4996659;28;20178;-48
2023/04/26 06:01:06;;;;;;;16.35;11.52;;;;;;;;;;4997358;28;20177;-48
2023/04/26 06:03:32;;;;;;;16.17;11.18;;;;;;;;;;4996811;28;20516;-48
2023/04/26 06:05:58;;;;;;;11.93;9.93;;;;;;;;;;4996926;28;20185;-48
2023/04/26 06:08:27;;;;;;;13.00;10.23;;;;;;;;;;4995691;28;20181;-48
2023/04/26 06:10:53;;;;;;;13.10;10.35;;;;;;;;;;4997094;28;20174;-48
2023/04/26 06:13:19;;;;;;;14.23;9.98;;;;;;;;;;4997215;28;20197;-48
2023/04/26 06:15:45;;;;;;;13.30;9.73;;;;;;;;;;4996657;28;20181;-48
2023/04/26 06:18:11;;;;;;;11.77;9.07;;;;;;;;;;4996238;28;20476;-48
2023/04/26 06:20:37;;;;;;;13.40;9.65;;;;;;;;;;4996745;28;20309;-48
2023/04/26 06:23:03;;;;;;;11.60;9.07;;;;;;;;;;4996826;28;20216;-48
2023/04/26 06:25:29;;;;;;;11.55;8.80;;;;;;;;;;4996972;28;20183;-48
2023/04/26 06:27:55;;;;;;;12.75;9.05;;;;;;;;;;4996388;28;20213;-48
2023/04/26 06:30:21;;;;;;;14.27;9.48;;;;;;;;;;4997061;28;20220;-48
2023/04/26 06:32:47;;;;;;;11.02;8.50;;;;;;;;;;4996327;28;20181;-48
2023/04/26 06:35:13;;;;;;;10.85;8.32;;;;;;;;;;4996552;28;20197;-48
2023/04/26 06:37:39;;;;;;;10.32;7.90;;;;;;;;;;4995904;28;20275;-48
2023/04/26 06:40:05;;;;;;;12.63;8.15;;;;;;;;;;4996776;28;20224;-48
2023/04/26 06:42:31;;;;;;;10.98;8.07;;;;;;;;;;4995468;28;20267;-48
2023/04/26 06:44:57;;;;;;;10.75;8.30;;;;;;;;;;4996464;28;20898;-48
2023/04/26 06:47:23;;;;;;;11.98;7.95;;;;;;;;;;4996017;28;20193;-48
2023/04/26 06:49:50;;;;;;;10.40;7.88;;;;;;;;;;4996152;28;20185;-48
2023/04/26 06:52:16;;;;;;;8.02;7.20;;;;;;;;;;4995889;28;20290;-48
2023/04/26 06:54:42;;;;;;;10.20;8.15;;;;;;;;;;4995741;28;20357;-48
2023/04/26 06:57:08;;;;;;;10.55;7.60;;;;;;;;;;4989986;28;20485;-48
2023/04/26 06:59:34;;;;;;;8.77;6.82;;;;;;;;;;4996657;28;20181;-48
2023/04/26 07:02:01;;;;;;;9.10;7.30;;;;;;;;;;4995975;28;20223;-48
2023/04/26 07:04:26;;;;;;;8.98;6.78;;;;;;;;;;4995913;28;20216;-48
2023/04/26 07:06:52;;;;;;;9.18;7.18;;;;;;;;;;4994693;28;20185;-48
2023/04/26 07:09:18;;;;;;;8.73;7.20;;;;;;;;;;4995527;28;20196;-48
2023/04/26 07:11:47;;;;;;;9.85;6.78;;;;;;;;;;4993337;28;20177;-48
2023/04/26 07:14:13;;;;;;;10.10;6.95;;;;;;;;;;4991866;28;20189;-48
2023/04/26 07:16:39;;;;;;;10.00;7.35;;;;;;;;;;4991968;28;20647;-48
2023/04/26 07:19:06;;;;;;;9.75;7.10;;;;;;;;;;4994381;28;20268;-48
2023/04/26 07:21:32;;;;;;;7.78;6.63;;;;;;;;;;4992850;28;20720;-48
2023/04/26 07:23:58;;;;;;;8.80;6.45;;;;;;;;;;4994296;28;20299;-48
2023/04/26 07:26:25;;;;;;;8.10;6.22;;;;;;;;;;4994277;28;20185;-48
2023/04/26 07:28:51;;;;;;;8.15;6.28;;;;;;;;;;4993807;28;20556;-48
2023/04/26 07:31:17;;;;;;;9.18;6.47;;;;;;;;;;4988211;28;20193;-48
2023/04/26 07:33:43;;;;;;;10.10;6.15;;;;;;;;;;4990423;28;20476;-48
2023/04/26 07:36:09;;;;;;;6.82;6.13;;;;;;;;;;4990963;28;20207;-48
2023/04/26 07:38:35;;;;;;;6.65;5.95;;;;;;;;;;4992270;28;20185;-48
2023/04/26 07:41:01;;;;;;;7.55;6.07;;;;;;;;;;4990472;28;20181;-48
2023/04/26 07:43:27;;;;;;;7.53;6.10;;;;;;;;;;4991139;28;20648;-48
2023/04/26 07:45:53;;;;;;;7.72;5.22;;;;;;;;;;4993743;28;20181;-48
2023/04/26 07:48:19;;;;;;;8.25;5.57;;;;;;;;;;4993023;28;20228;-48
2023/04/26 07:50:45;;;;;;;8.38;5.40;;;;;;;;;;4990291;28;20495;-48
2023/04/26 07:53:11;;;;;;;6.10;5.15;;;;;;;;;;4994925;28;20553;-48
2023/04/26 07:55:37;;;;;;;7.30;5.38;;;;;;;;;;4994218;28;20210;-48
2023/04/26 07:58:03;;;;;;;7.28;5.22;;;;;;;;;;4992479;28;20189;-48
2023/04/26 08:00:29;;;;;;;7.15;5.55;;;;;;;;;;4993266;28;20185;-48
2023/04/26 08:02:55;;;;;;;7.07;5.50;;;;;;;;;;4992636;28;20204;-48
2023/04/26 08:05:21;;;;;;;8.27;5.80;;;;;;;;;;4992497;28;20181;-48
2023/04/26 08:07:47;;;;;;;6.28;4.93;;;;;;;;;;4993129;28;20192;-48
2023/04/26 08:10:12;;;;;;;8.00;5.00;;;;;;;;;;4994570;28;20188;-48
2023/04/26 08:12:39;;;;;;;6.63;5.30;;;;;;;;;;4994671;28;20185;-48
2023/04/26 08:15:05;;;;;;;6.38;5.22;;;;;;;;;;4993093;28;20437;-48
2023/04/26 08:17:31;;;;;;;6.35;4.93;;;;;;;;;;4994500;28;20587;-48
2023/04/26 08:19:57;;;;;;;6.35;4.78;;;;;;;;;;4995007;28;20592;-48
2023/04/26 08:22:23;;;;;;;6.15;4.47;;;;;;;;;;4991815;28;20192;-48
2023/04/26 08:24:50;;;;;;;6.95;4.88;;;;;;;;;;4991843;28;20177;-48
2023/04/26 08:27:17;;;;;;;6.05;4.75;;;;;;;;;;4993905;28;20192;-48
2023/04/26 08:29:43;;;;;;;6.50;4.25;;;;;;;;;;4995463;28;20431;-48
2023/04/26 08:32:09;;;;;;;5.47;4.32;;;;;;;;;;5000280;28;20183;-48
2023/04/26 08:34:35;;;;;;;6.55;4.43;;;;;;;;;;4994407;28;20185;-48
2023/04/26 08:37:01;;;;;;;6.05;4.20;;;;;;;;;;4994192;28;20260;-48
2023/04/26 08:39:27;;;;;;;6.07;4.47;;;;;;;;;;4994505;28;20284;-48
2023/04/26 08:41:54;;;;;;;4.80;3.70;;;;;;;;;;4992141;28;20468;-48
2023/04/26 08:44:24;;;;;;;4.35;3.88;;;;;;;;;;4989720;28;20219;-48
2023/04/26 08:46:50;;;;;;;6.03;3.80;;;;;;;;;;4990887;28;20691;-48
2023/04/26 08:49:27;;;;;;;4.93;3.92;;;;;;;;;;4994784;28;20248;-48
2023/04/26 08:51:53;;;;;;;6.38;4.20;;;;;;;;;;4994219;28;20231;-48
2023/04/26 08:54:20;;;;;;;5.18;3.83;;;;;;;;;;4990014;28;20225;-48
2023/04/26 08:56:46;;;;;;;4.03;3.55;;;;;;;;;;4993127;28;20196;-48
2023/04/26 08:59:12;;;;;;;4.90;3.80;;;;;;;;;;4992705;28;20181;-48
2023/04/26 09:01:43;;;;;;;5.07;3.83;;;;;;;;;;4992241;28;20560;-48
2023/04/26 09:04:09;;;;;;;4.00;3.60;;;;;;;;;;4994023;28;20247;-48
2023/04/26 09:06:36;;;;;;;4.82;3.70;;;;;;;;;;4991774;28;20273;-48
2023/04/26 09:09:03;;;;;;;6.60;3.70;;;;;;;;;;4994742;28;20407;-48
2023/04/26 09:11:30;;;;;;;5.13;3.33;;;;;;;;;;4994249;28;20190;-48
2023/04/26 09:13:56;;;;;;;3.60;3.28;;;;;;;;;;4993564;28;20212;-48
2023/04/26 09:16:38;;;;;;;5.53;3.63;;;;;;;;;;4992210;28;21467;-48
2023/04/26 09:19:04;;;;;;;4.80;3.60;;;;;;;;;;4995772;28;20193;-48
2023/04/26 09:21:30;;;;;;;4.63;3.35;;;;;;;;;;4997685;28;20249;-48
2023/04/26 09:23:57;;;;;;;4.53;3.50;;;;;;;;;;4997746;28;20304;-48
2023/04/26 09:26:23;;;;;;;3.72;3.20;;;;;;;;;;4996076;28;20507;-48
2023/04/26 09:28:49;;;;;;;4.85;3.20;;;;;;;;;;4995444;28;20181;-48
2023/04/26 09:31:35;;;;;;;4.45;3.45;;;;;;;;;;4995863;28;20572;-48
2023/04/26 09:34:01;;;;;;;4.90;3.35;;;;;;;;;;4992363;28;20587;-48
2023/04/26 09:36:27;;;;;;;3.67;3.05;;;;;;;;;;4997268;28;20506;-48
2023/04/26 09:38:52;;;;;;;3.50;3.00;;;;;;;;;;4997578;28;20216;-48
2023/04/26 09:41:18;;;;;;;4.05;3.10;;;;;;;;;;4997530;28;20627;-48
2023/04/26 09:43:44;;;;;;;3.53;2.78;;;;;;;;;;4996890;28;20251;-48
2023/04/26 09:46:10;;;;;;;4.55;3.13;;;;;;;;;;4997584;28;20277;-48
2023/04/26 09:48:36;;;;;;;3.72;2.97;;;;;;;;;;4996144;28;20185;-48
2023/04/26 09:51:02;;;;;;;3.47;3.00;;;;;;;;;;4997538;28;20214;-48
2023/04/26 09:53:28;;;;;;;3.55;3.05;;;;;;;;;;4996691;28;20555;-48
2023/04/26 09:55:54;;;;;;;3.75;2.95;;;;;;;;;;4995311;28;20196;-48
2023/04/26 09:58:22;;;;;;;3.75;2.88;;;;;;;;;;4996572;28;20195;-48
2023/04/26 10:00:49;;;;;;;3.63;2.90;;;;;;;;;;4993884;28;20181;-48
2023/04/26 10:03:16;;;;;;;2.85;2.53;;;;;;;;;;4994830;28;20291;-48
2023/04/26 10:05:42;;;;;;;4.90;3.10;;;;;;;;;;4993510;28;20193;-48
2023/04/26 10:08:08;;;;;;;3.42;2.80;;;;;;;;;;4995341;28;20192;-48
2023/04/26 10:10:35;;;;;;;3.70;2.70;;;;;;;;;;4992429;28;20177;-48
2023/04/26 10:13:01;;;;;;;3.15;2.83;;;;;;;;;;4996614;28;20205;-48
2023/04/26 10:15:26;;;;;;;4.15;2.65;;;;;;;;;;4993520;28;20216;-48
2023/04/26 10:17:52;;;;;;;2.97;2.55;;;;;;;;;;4991295;28;20177;-48
2023/04/26 10:20:20;;;;;;;3.00;2.30;;;;;;;;;;4995326;28;20200;-48
2023/04/26 10:22:48;;;;;;;3.88;2.17;;;;;;;;;;4989986;28;20473;-48
2023/04/26 10:25:14;;;;;;;3.45;2.50;;;;;;;;;;4977345;28;20201;-48
2023/04/26 10:27:43;;;;;;;2.85;2.50;;;;;;;;;;4994456;28;20235;-48
2023/04/26 10:30:11;;;;;;;2.85;2.42;;;;;;;;;;4995587;28;20561;-48
2023/04/26 10:32:52;;;;;;;2.70;2.45;;;;;;;;;;4996939;28;20177;-48
2023/04/26 10:35:19;;;;;;;2.88;2.45;;;;;;;;;;4995936;28;20227;-48
2023/04/26 10:38:00;;;;;;;2.75;2.33;;;;;;;;;;4995997;28;20193;-48
2023/04/26 10:40:33;;;;;;;3.67;2.45;;;;;;;;;;4995126;28;20293;-48
2023/04/26 10:43:08;;;;;;;2.65;2.45;;;;;;;;;;4996554;28;20205;-48
2023/04/26 10:45:35;;;;;;;3.05;2.75;;;;;;;;;;4993276;28;20290;-48
2023/04/26 10:48:20;;;;;;;2.53;2.20;;;;;;;;;;4990272;28;20440;-48
2023/04/26 10:51:01;;;;;;;2.58;2.30;;;;;;;;;;4995682;28;20188;-48
2023/04/26 10:53:31;;;;;;;2.67;2.33;;;;;;;;;;4995527;28;20225;-48
2023/04/26 10:55:57;;;;;;;2.80;2.22;;;;;;;;;;4991299;28;20212;-48
2023/04/26 10:58:30;;;;;;;3.20;2.28;;;;;;;;;;4992862;28;20231;-48
2023/04/26 11:01:07;;;;;;;3.70;2.17;;;;;;;;;;4993772;28;20181;-48
2023/04/26 11:03:32;;;;;;;3.55;2.65;;;;;;;;;;4995470;28;20479;-48
2023/04/26 11:05:58;;;;;;;3.45;2.35;;;;;;;;;;4994431;28;20185;-48
2023/04/26 11:08:29;;;;;;;2.42;2.22;;;;;;;;;;4993584;28;20212;-48
2023/04/26 11:11:05;;;;;;;2.28;2.08;;;;;;;;;;4983968;28;20181;-48
2023/04/26 11:13:32;;;;;;;2.05;1.85;;;;;;;;;;4994958;28;20184;-48
2023/04/26 11:16:02;;;;;;;3.75;2.47;;;;;;;;;;4992395;28;20525;-48
2023/04/26 11:18:29;;;;;;;2.22;2.03;;;;;;;;;;4990695;28;20703;-48
2023/04/26 11:20:55;;;;;;;3.70;2.15;;;;;;;;;;4994473;28;20449;-48
2023/04/26 11:23:22;;;;;;;1.90;1.70;;;;;;;;;;4995357;28;20213;-48
2023/04/26 11:25:48;;;;;;;2.45;2.05;;;;;;;;;;4993535;28;20506;-48
2023/04/26 11:28:14;;;;;;;3.13;2.15;;;;;;;;;;4995002;28;20236;-47
2023/04/26 11:30:40;;;;;;;2.10;1.90;;;;;;;;;;4992512;28;20185;-48
2023/04/26 11:33:06;;;;;;;2.55;2.08;;;;;;;;;;4995410;28;20208;-48
2023/04/26 11:35:35;;;;;;;3.10;2.22;;;;;;;;;;4994777;28;20200;-48
2023/04/26 11:38:03;;;;;;;2.10;1.90;;;;;;;;;;4992629;28;20189;-48
2023/04/26 11:40:32;;;;;;;2.03;1.83;;;;;;;;;;4992758;28;20272;-48
2023/04/26 11:43:00;;;;;;;2.05;1.70;;;;;;;;;;4983254;28;20232;-48
2023/04/26 11:45:26;;;;;;;2.17;1.90;;;;;;;;;;4988114;28;20212;-48
2023/04/26 11:47:52;;;;;;;1.60;1.50;;;;;;;;;;4991792;28;20264;-48
2023/04/26 11:50:19;;;;;;;2.83;2.00;;;;;;;;;;4994907;28;20188;-48
2023/04/26 11:52:45;;;;;;;2.75;1.90;;;;;;;;;;4994868;28;20213;-48
2023/04/26 11:55:11;;;;;;;2.38;1.75;;;;;;;;;;4992262;28;20236;-48
2023/04/26 11:57:37;;;;;;;2.00;1.80;;;;;;;;;;4993005;28;20235;-48
2023/04/26 12:00:13;;;;;;;2.00;1.80;;;;;;;;;;4990683;28;20208;-48
2023/04/26 12:02:40;;;;;;;2.20;1.70;;;;;;;;;;4994567;28;20220;-48
2023/04/26 12:05:07;;;;;;;4.55;1.88;;;;;;;;;;4993615;28;20193;-48
2023/04/26 12:07:36;;;;;;;2.63;1.85;;;;;;;;;;4990503;28;20181;-48
2023/04/26 12:10:18;;;;;;;2.22;1.75;;;;;;;;;;4990669;28;20244;-48
2023/04/26 12:12:47;;;;;;;1.63;1.48;;;;;;;;;;4992337;28;20264;-48
2023/04/26 12:15:13;;;;;;;2.88;1.90;;;;;;;;;;4989672;28;20623;-48
2023/04/26 12:17:39;;;;;;;1.70;1.60;;;;;;;;;;4993927;28;20200;-48
2023/04/26 12:20:09;;;;;;;1.77;1.67;;;;;;;;;;4991985;28;20212;-48
2023/04/26 12:22:35;;;;;;;1.55;1.40;;;;;;;;;;4988474;28;20181;-48
2023/04/26 12:25:05;;;;;;;2.00;1.88;;;;;;;;;;4994799;28;20187;-48
2023/04/26 12:27:31;;;;;;;1.75;1.65;;;;;;;;;;4991624;28;20224;-48
2023/04/26 12:29:57;;;;;;;1.67;1.58;;;;;;;;;;4994377;28;20545;-48
2023/04/26 12:32:23;;;;;;;2.88;1.70;;;;;;;;;;4991349;28;20181;-48
2023/04/26 12:34:48;;;;;;;2.20;1.73;;;;;;;;;;4991228;28;20197;-48
2023/04/26 12:37:14;;;;;;;1.77;1.50;;;;;;;;;;4988954;28;20177;-48
2023/04/26 12:39:40;;;;;;;1.50;1.40;;;;;;;;;;4993226;28;20177;-48
2023/04/26 12:42:06;;;;;;;2.13;1.50;;;;;;;;;;4992390;28;20615;-48
2023/04/26 12:44:32;;;;;;;1.77;1.67;;;;;;;;;;4993877;28;20213;-48
2023/04/26 12:46:58;;;;;;;2.53;1.70;;;;;;;;;;4989781;28;20204;-48
2023/04/26 12:49:24;;;;;;;2.28;1.45;;;;;;;;;;4994648;28;20182;-48
2023/04/26 12:51:50;;;;;;;1.65;1.42;;;;;;;;;;4991282;28;20583;-48
2023/04/26 12:54:16;;;;;;;2.13;1.70;;;;;;;;;;4990865;28;20213;-48
2023/04/26 12:56:43;;;;;;;1.65;1.55;;;;;;;;;;4994653;28;20193;-48
2023/04/26 12:59:09;;;;;;;1.85;1.40;;;;;;;;;;4997653;28;20679;-48
2023/04/26 13:01:35;;;;;;;1.50;1.40;;;;;;;;;;4994422;28;20565;-48
2023/04/26 13:04:03;;;;;;;1.73;1.30;;;;;;;;;;4980250;28;20220;-48
2023/04/26 13:06:29;;;;;;;1.83;1.48;;;;;;;;;;4998227;28;20177;-48
2023/04/26 13:08:55;;;;;;;1.60;1.50;;;;;;;;;;4996013;28;20289;-48
2023/04/26 13:11:21;;;;;;;1.48;1.30;;;;;;;;;;4998099;28;20185;-48
2023/04/26 13:13:48;;;;;;;1.85;1.50;;;;;;;;;;4997329;28;20201;-48
2023/04/26 13:16:14;;;;;;;1.33;1.23;;;;;;;;;;4995733;28;20216;-48
2023/04/26 13:18:40;;;;;;;1.50;1.40;;;;;;;;;;4992915;28;20264;-48
2023/04/26 13:21:06;;;;;;;1.42;1.33;;;;;;;;;;4997742;28;20573;-48
2023/04/26 13:23:32;;;;;;;1.25;1.15;;;;;;;;;;4997733;28;20212;-48
2023/04/26 13:25:58;;;;;;;1.75;1.33;;;;;;;;;;4997776;28;20201;-48
2023/04/26 13:28:24;;;;;;;1.63;1.42;;;;;;;;;;4993898;28;20221;-48
2023/04/26 13:30:51;;;;;;;1.45;1.33;;;;;;;;;;4997043;28;20429;-48
2023/04/26 13:33:17;;;;;;;2.33;1.48;;;;;;;;;;4996284;28;20184;-48
2023/04/26 13:35:43;;;;;;;2.92;1.30;;;;;;;;;;4995421;28;20201;-48
2023/04/26 13:38:09;;;;;;;1.40;1.30;;;;;;;;;;4994644;28;20177;-48
2023/04/26 13:40:36;;;;;;;1.63;1.35;;;;;;;;;;4997067;28;20259;-48
2023/04/26 13:43:02;;;;;;;1.63;1.23;;;;;;;;;;4995688;28;20303;-48
2023/04/26 13:45:28;;;;;;;1.70;1.30;;;;;;;;;;4995960;28;20192;-48
2023/04/26 13:47:54;;;;;;;1.67;1.30;;;;;;;;;;4995996;28;20264;-48
2023/04/26 13:50:20;;;;;;;1.45;1.30;;;;;;;;;;4994864;28;20607;-48
2023/04/26 13:52:49;;;;;;;1.50;1.40;;;;;;;;;;4996229;28;20192;-48
2023/04/26 13:55:15;;;;;;;1.70;1.42;;;;;;;;;;4994662;28;20201;-48
2023/04/26 13:57:41;;;;;;;1.90;1.30;;;;;;;;;;4979930;28;20181;-48
2023/04/26 14:00:08;;;;;;;1.33;1.23;;;;;;;;;;4994298;28;20592;-48
2023/04/26 14:02:34;;;;;;;1.52;1.30;;;;;;;;;;4996654;28;20196;-48
2023/04/26 14:05:00;;;;;;;2.10;1.48;;;;;;;;;;4990604;28;22817;-48
2023/04/26 14:07:26;;;;;;;1.35;1.25;;;;;;;;;;4994872;28;20185;-48
2023/04/26 14:09:52;;;;;;;1.27;1.17;;;;;;;;;;4994765;28;20193;-48
2023/04/26 14:12:18;;;;;;;1.27;1.17;;;;;;;;;;4993887;28;20215;-48
2023/04/26 14:14:45;;;;;;;1.35;1.20;;;;;;;;;;4994291;28;20213;-48
2023/04/26 14:17:11;;;;;;;1.30;1.20;;;;;;;;;;4996529;28;20173;-48
2023/04/26 14:19:37;;;;;;;1.30;1.20;;;;;;;;;;4997082;28;20193;-48
2023/04/26 14:22:03;;;;;;;1.20;1.10;;;;;;;;;;5001924;28;20195;-48
2023/04/26 14:24:29;;;;;;;1.20;1.10;;;;;;;;;;4995178;28;20212;-48
2023/04/26 14:26:55;;;;;;;1.40;1.27;;;;;;;;;;4995324;28;20185;-48